sensor_id;sensor_type;location;lat;lon;timestamp;temperature;humidity
24426;DHT22;12611;44.446;26.000;2023-07-31T00:01:47;26.40;74.40
24426;DHT22;12611;44.446;26.000;2023-07-31T00:04:16;26.40;74.70
24426;DHT22;12611;44.446;26.000;2023-07-31T00:06:44;26.30;75.00
24426;DHT22;12611;44.446;26.000;2023-07-31T00:09:13;26.30;75.50
24426;DHT22;12611;44.446;26.000;2023-07-31T00:11:43;26.30;75.60
24426;DHT22;12611;44.446;26.000;2023-07-31T00:14:11;26.20;76.00
24426;DHT22;12611;44.446;26.000;2023-07-31T00:16:40;26.20;75.90
24426;DHT22;12611;44.446;26.000;2023-07-31T00:19:09;26.20;76.30
24426;DHT22;12611;44.446;26.000;2023-07-31T00:21:38;26.10;77.00
24426;DHT22;12611;44.446;26.000;2023-07-31T00:24:06;26.10;77.30
24426;DHT22;12611;44.446;26.000;2023-07-31T00:26:35;26.00;77.20
24426;DHT22;12611;44.446;26.000;2023-07-31T00:29:06;26.00;77.20
24426;DHT22;12611;44.446;26.000;2023-07-31T00:31:34;26.00;77.60
24426;DHT22;12611;44.446;26.000;2023-07-31T00:34:03;26.00;77.80
24426;DHT22;12611;44.446;26.000;2023-07-31T00:36:31;26.00;78.20
24426;DHT22;12611;44.446;26.000;2023-07-31T00:39:00;25.90;78.70
24426;DHT22;12611;44.446;26.000;2023-07-31T00:41:28;25.80;78.80
24426;DHT22;12611;44.446;26.000;2023-07-31T00:43:57;25.90;78.60
24426;DHT22;12611;44.446;26.000;2023-07-31T00:46:27;25.90;79.50
24426;DHT22;12611;44.446;26.000;2023-07-31T00:48:56;25.90;79.30
24426;DHT22;12611;44.446;26.000;2023-07-31T00:51:25;25.80;79.80
24426;DHT22;12611;44.446;26.000;2023-07-31T00:53:55;25.90;79.40
24426;DHT22;12611;44.446;26.000;2023-07-31T00:56:24;25.80;80.10
24426;DHT22;12611;44.446;26.000;2023-07-31T00:58:53;25.80;80.20
24426;DHT22;12611;44.446;26.000;2023-07-31T01:01:23;25.70;80.40
24426;DHT22;12611;44.446;26.000;2023-07-31T01:03:53;25.70;81.30
24426;DHT22;12611;44.446;26.000;2023-07-31T01:06:31;25.70;80.50
24426;DHT22;12611;44.446;26.000;2023-07-31T01:09:06;25.70;81.50
24426;DHT22;12611;44.446;26.000;2023-07-31T01:11:43;25.70;81.70
24426;DHT22;12611;44.446;26.000;2023-07-31T01:14:14;25.60;81.50
24426;DHT22;12611;44.446;26.000;2023-07-31T01:16:43;25.60;82.70
24426;DHT22;12611;44.446;26.000;2023-07-31T01:19:15;25.50;83.60
24426;DHT22;12611;44.446;26.000;2023-07-31T01:22:02;25.40;84.40
24426;DHT22;12611;44.446;26.000;2023-07-31T01:24:42;25.40;84.50
24426;DHT22;12611;44.446;26.000;2023-07-31T01:27:24;25.40;84.20
24426;DHT22;12611;44.446;26.000;2023-07-31T01:30:00;25.30;84.80
24426;DHT22;12611;44.446;26.000;2023-07-31T01:32:40;25.20;84.50
24426;DHT22;12611;44.446;26.000;2023-07-31T01:35:09;25.20;83.80
24426;DHT22;12611;44.446;26.000;2023-07-31T01:37:38;25.20;83.20
24426;DHT22;12611;44.446;26.000;2023-07-31T01:40:07;25.20;82.80
24426;DHT22;12611;44.446;26.000;2023-07-31T01:42:38;25.20;82.60
24426;DHT22;12611;44.446;26.000;2023-07-31T01:45:07;25.20;82.50
24426;DHT22;12611;44.446;26.000;2023-07-31T01:47:36;25.20;82.40
24426;DHT22;12611;44.446;26.000;2023-07-31T01:50:05;25.10;83.00
24426;DHT22;12611;44.446;26.000;2023-07-31T01:52:34;25.10;83.80
24426;DHT22;12611;44.446;26.000;2023-07-31T01:55:03;25.10;84.40
24426;DHT22;12611;44.446;26.000;2023-07-31T01:57:33;25.00;84.60
24426;DHT22;12611;44.446;26.000;2023-07-31T02:00:05;25.00;85.80
24426;DHT22;12611;44.446;26.000;2023-07-31T02:02:34;24.90;86.70
24426;DHT22;12611;44.446;26.000;2023-07-31T02:05:03;24.90;87.40
24426;DHT22;12611;44.446;26.000;2023-07-31T02:07:32;24.80;88.10
24426;DHT22;12611;44.446;26.000;2023-07-31T02:10:00;24.70;89.00
24426;DHT22;12611;44.446;26.000;2023-07-31T02:12:29;24.70;89.40
24426;DHT22;12611;44.446;26.000;2023-07-31T02:14:59;24.60;90.10
24426;DHT22;12611;44.446;26.000;2023-07-31T02:17:29;24.60;90.00
24426;DHT22;12611;44.446;26.000;2023-07-31T02:19:58;24.50;90.20
24426;DHT22;12611;44.446;26.000;2023-07-31T02:22:26;24.50;90.50
24426;DHT22;12611;44.446;26.000;2023-07-31T02:24:55;24.40;91.10
24426;DHT22;12611;44.446;26.000;2023-07-31T02:27:23;24.40;91.00
24426;DHT22;12611;44.446;26.000;2023-07-31T02:29:54;24.30;91.10
24426;DHT22;12611;44.446;26.000;2023-07-31T02:32:23;24.30;90.70
24426;DHT22;12611;44.446;26.000;2023-07-31T02:34:53;24.30;90.80
24426;DHT22;12611;44.446;26.000;2023-07-31T02:37:22;24.30;90.80
24426;DHT22;12611;44.446;26.000;2023-07-31T02:39:50;24.30;90.80
24426;DHT22;12611;44.446;26.000;2023-07-31T02:42:19;24.30;90.60
24426;DHT22;12611;44.446;26.000;2023-07-31T02:44:47;24.20;90.70
24426;DHT22;12611;44.446;26.000;2023-07-31T02:47:18;24.30;90.50
24426;DHT22;12611;44.446;26.000;2023-07-31T02:49:46;24.20;90.70
24426;DHT22;12611;44.446;26.000;2023-07-31T02:52:16;24.20;90.20
24426;DHT22;12611;44.446;26.000;2023-07-31T02:54:45;24.20;90.40
24426;DHT22;12611;44.446;26.000;2023-07-31T02:57:13;24.20;90.40
24426;DHT22;12611;44.446;26.000;2023-07-31T02:59:43;24.20;90.30
24426;DHT22;12611;44.446;26.000;2023-07-31T03:02:12;24.20;90.60
24426;DHT22;12611;44.446;26.000;2023-07-31T03:04:41;24.10;90.60
24426;DHT22;12611;44.446;26.000;2023-07-31T03:07:10;24.10;90.80
24426;DHT22;12611;44.446;26.000;2023-07-31T03:09:39;24.10;91.20
24426;DHT22;12611;44.446;26.000;2023-07-31T03:12:08;24.00;91.10
24426;DHT22;12611;44.446;26.000;2023-07-31T03:14:37;24.00;90.90
24426;DHT22;12611;44.446;26.000;2023-07-31T03:17:06;24.00;90.80
24426;DHT22;12611;44.446;26.000;2023-07-31T03:19:34;24.00;90.70
24426;DHT22;12611;44.446;26.000;2023-07-31T03:22:03;24.00;90.60
24426;DHT22;12611;44.446;26.000;2023-07-31T03:24:32;24.00;90.50
24426;DHT22;12611;44.446;26.000;2023-07-31T03:27:02;24.00;90.30
24426;DHT22;12611;44.446;26.000;2023-07-31T03:29:31;23.90;90.10
24426;DHT22;12611;44.446;26.000;2023-07-31T03:31:59;23.90;90.00
24426;DHT22;12611;44.446;26.000;2023-07-31T03:34:28;23.90;90.10
24426;DHT22;12611;44.446;26.000;2023-07-31T03:36:59;23.90;90.20
24426;DHT22;12611;44.446;26.000;2023-07-31T03:39:27;23.90;90.20
24426;DHT22;12611;44.446;26.000;2023-07-31T03:41:56;23.90;90.40
24426;DHT22;12611;44.446;26.000;2023-07-31T03:44:25;23.90;90.00
24426;DHT22;12611;44.446;26.000;2023-07-31T03:46:54;23.90;90.00
24426;DHT22;12611;44.446;26.000;2023-07-31T03:49:23;23.90;89.90
24426;DHT22;12611;44.446;26.000;2023-07-31T03:51:51;23.90;90.00
24426;DHT22;12611;44.446;26.000;2023-07-31T03:54:20;23.90;90.20
24426;DHT22;12611;44.446;26.000;2023-07-31T03:56:49;23.90;90.30
24426;DHT22;12611;44.446;26.000;2023-07-31T03:59:17;23.90;90.40
24426;DHT22;12611;44.446;26.000;2023-07-31T04:01:47;23.90;90.40
24426;DHT22;12611;44.446;26.000;2023-07-31T04:04:16;23.90;90.60
24426;DHT22;12611;44.446;26.000;2023-07-31T04:06:44;23.90;90.50
24426;DHT22;12611;44.446;26.000;2023-07-31T04:09:13;23.90;90.70
24426;DHT22;12611;44.446;26.000;2023-07-31T04:11:41;23.90;91.40
24426;DHT22;12611;44.446;26.000;2023-07-31T04:14:10;23.90;91.60
24426;DHT22;12611;44.446;26.000;2023-07-31T04:16:38;23.90;92.00
24426;DHT22;12611;44.446;26.000;2023-07-31T04:19:09;23.90;91.90
24426;DHT22;12611;44.446;26.000;2023-07-31T04:21:37;23.90;91.60
24426;DHT22;12611;44.446;26.000;2023-07-31T04:24:06;23.90;91.50
24426;DHT22;12611;44.446;26.000;2023-07-31T04:26:34;23.90;91.50
24426;DHT22;12611;44.446;26.000;2023-07-31T04:29:03;23.90;91.40
24426;DHT22;12611;44.446;26.000;2023-07-31T04:31:33;23.90;91.40
24426;DHT22;12611;44.446;26.000;2023-07-31T04:34:05;23.90;91.40
24426;DHT22;12611;44.446;26.000;2023-07-31T04:36:35;24.00;91.60
24426;DHT22;12611;44.446;26.000;2023-07-31T04:39:04;23.90;91.70
24426;DHT22;12611;44.446;26.000;2023-07-31T04:41:33;23.90;92.50
24426;DHT22;12611;44.446;26.000;2023-07-31T04:44:01;23.90;92.50
24426;DHT22;12611;44.446;26.000;2023-07-31T04:46:30;23.90;92.50
24426;DHT22;12611;44.446;26.000;2023-07-31T04:48:59;23.90;92.50
24426;DHT22;12611;44.446;26.000;2023-07-31T04:51:27;23.90;92.60
24426;DHT22;12611;44.446;26.000;2023-07-31T04:53:57;23.90;92.70
24426;DHT22;12611;44.446;26.000;2023-07-31T04:56:25;23.90;92.70
24426;DHT22;12611;44.446;26.000;2023-07-31T04:58:54;23.90;92.60
24426;DHT22;12611;44.446;26.000;2023-07-31T05:01:22;23.90;92.70
24426;DHT22;12611;44.446;26.000;2023-07-31T05:03:51;23.90;92.80
24426;DHT22;12611;44.446;26.000;2023-07-31T05:06:19;23.90;93.30
24426;DHT22;12611;44.446;26.000;2023-07-31T05:08:48;23.90;93.10
24426;DHT22;12611;44.446;26.000;2023-07-31T05:11:18;24.00;92.80
24426;DHT22;12611;44.446;26.000;2023-07-31T05:13:46;23.90;93.00
24426;DHT22;12611;44.446;26.000;2023-07-31T05:16:15;24.00;92.90
24426;DHT22;12611;44.446;26.000;2023-07-31T05:18:43;23.90;92.80
24426;DHT22;12611;44.446;26.000;2023-07-31T05:21:11;24.00;92.80
24426;DHT22;12611;44.446;26.000;2023-07-31T05:23:40;24.00;92.80
24426;DHT22;12611;44.446;26.000;2023-07-31T05:26:09;24.00;92.70
24426;DHT22;12611;44.446;26.000;2023-07-31T05:28:39;24.00;92.60
24426;DHT22;12611;44.446;26.000;2023-07-31T05:31:08;24.00;92.50
24426;DHT22;12611;44.446;26.000;2023-07-31T05:33:36;24.10;92.50
24426;DHT22;12611;44.446;26.000;2023-07-31T05:36:05;24.10;92.30
24426;DHT22;12611;44.446;26.000;2023-07-31T05:38:34;24.10;92.30
24426;DHT22;12611;44.446;26.000;2023-07-31T05:41:03;24.20;92.50
24426;DHT22;12611;44.446;26.000;2023-07-31T05:43:32;24.20;92.50
24426;DHT22;12611;44.446;26.000;2023-07-31T05:46:02;24.20;92.40
24426;DHT22;12611;44.446;26.000;2023-07-31T05:48:32;24.20;92.60
24426;DHT22;12611;44.446;26.000;2023-07-31T05:51:02;24.30;92.50
24426;DHT22;12611;44.446;26.000;2023-07-31T05:53:31;24.30;92.60
24426;DHT22;12611;44.446;26.000;2023-07-31T05:56:00;24.30;92.50
24426;DHT22;12611;44.446;26.000;2023-07-31T05:58:29;24.40;92.50
24426;DHT22;12611;44.446;26.000;2023-07-31T06:00:57;24.40;92.50
24426;DHT22;12611;44.446;26.000;2023-07-31T06:03:27;24.40;92.40
24426;DHT22;12611;44.446;26.000;2023-07-31T06:05:56;24.50;92.30
24426;DHT22;12611;44.446;26.000;2023-07-31T06:08:25;24.50;92.30
24426;DHT22;12611;44.446;26.000;2023-07-31T06:10:53;24.50;92.10
24426;DHT22;12611;44.446;26.000;2023-07-31T06:13:22;24.60;92.00
24426;DHT22;12611;44.446;26.000;2023-07-31T06:15:50;24.60;91.90
24426;DHT22;12611;44.446;26.000;2023-07-31T06:18:19;24.60;92.00
24426;DHT22;12611;44.446;26.000;2023-07-31T06:20:48;24.70;91.80
24426;DHT22;12611;44.446;26.000;2023-07-31T06:23:20;24.80;91.80
24426;DHT22;12611;44.446;26.000;2023-07-31T06:25:48;24.80;91.70
24426;DHT22;12611;44.446;26.000;2023-07-31T06:28:17;24.80;91.60
24426;DHT22;12611;44.446;26.000;2023-07-31T06:30:45;24.80;91.50
24426;DHT22;12611;44.446;26.000;2023-07-31T06:33:14;24.90;91.40
24426;DHT22;12611;44.446;26.000;2023-07-31T06:35:42;24.90;91.40
24426;DHT22;12611;44.446;26.000;2023-07-31T06:38:14;25.00;91.30
24426;DHT22;12611;44.446;26.000;2023-07-31T06:40:42;25.00;91.70
24426;DHT22;12611;44.446;26.000;2023-07-31T06:43:11;25.00;91.20
24426;DHT22;12611;44.446;26.000;2023-07-31T06:45:40;25.00;91.10
24426;DHT22;12611;44.446;26.000;2023-07-31T06:48:08;25.00;91.10
24426;DHT22;12611;44.446;26.000;2023-07-31T06:50:38;25.10;91.00
24426;DHT22;12611;44.446;26.000;2023-07-31T06:53:07;25.10;91.10
24426;DHT22;12611;44.446;26.000;2023-07-31T06:55:37;25.10;91.00
24426;DHT22;12611;44.446;26.000;2023-07-31T06:58:05;25.20;90.90
24426;DHT22;12611;44.446;26.000;2023-07-31T07:00:34;25.20;90.90
24426;DHT22;12611;44.446;26.000;2023-07-31T07:03:02;25.20;90.70
24426;DHT22;12611;44.446;26.000;2023-07-31T07:05:31;25.20;90.70
24426;DHT22;12611;44.446;26.000;2023-07-31T07:08:00;25.30;90.70
24426;DHT22;12611;44.446;26.000;2023-07-31T07:10:28;25.30;90.60
24426;DHT22;12611;44.446;26.000;2023-07-31T07:12:58;25.30;90.70
24426;DHT22;12611;44.446;26.000;2023-07-31T07:15:27;25.30;90.70
24426;DHT22;12611;44.446;26.000;2023-07-31T07:17:55;25.40;90.60
24426;DHT22;12611;44.446;26.000;2023-07-31T07:20:24;25.40;90.50
24426;DHT22;12611;44.446;26.000;2023-07-31T07:22:52;25.40;90.40
24426;DHT22;12611;44.446;26.000;2023-07-31T07:25:21;25.40;90.40
24426;DHT22;12611;44.446;26.000;2023-07-31T07:27:50;25.40;90.30
24426;DHT22;12611;44.446;26.000;2023-07-31T07:30:20;25.50;90.30
24426;DHT22;12611;44.446;26.000;2023-07-31T07:32:48;25.50;90.20
24426;DHT22;12611;44.446;26.000;2023-07-31T07:35:17;25.50;90.20
24426;DHT22;12611;44.446;26.000;2023-07-31T07:37:48;25.60;90.30
24426;DHT22;12611;44.446;26.000;2023-07-31T07:40:19;25.60;90.10
24426;DHT22;12611;44.446;26.000;2023-07-31T07:42:49;25.60;90.10
24426;DHT22;12611;44.446;26.000;2023-07-31T07:45:19;25.70;90.10
24426;DHT22;12611;44.446;26.000;2023-07-31T07:47:48;25.80;90.10
24426;DHT22;12611;44.446;26.000;2023-07-31T07:50:17;25.80;90.00
24426;DHT22;12611;44.446;26.000;2023-07-31T07:52:45;25.90;90.00
24426;DHT22;12611;44.446;26.000;2023-07-31T07:55:14;25.90;90.00
24426;DHT22;12611;44.446;26.000;2023-07-31T07:57:42;26.00;89.70
24426;DHT22;12611;44.446;26.000;2023-07-31T08:00:12;26.00;89.40
24426;DHT22;12611;44.446;26.000;2023-07-31T08:02:43;26.00;89.30
24426;DHT22;12611;44.446;26.000;2023-07-31T08:05:12;26.10;89.40
24426;DHT22;12611;44.446;26.000;2023-07-31T08:07:41;26.20;89.30
24426;DHT22;12611;44.446;26.000;2023-07-31T08:10:10;26.20;89.40
24426;DHT22;12611;44.446;26.000;2023-07-31T08:12:39;26.30;89.10
24426;DHT22;12611;44.446;26.000;2023-07-31T08:15:08;26.40;89.10
24426;DHT22;12611;44.446;26.000;2023-07-31T08:17:36;26.40;88.70
24426;DHT22;12611;44.446;26.000;2023-07-31T08:20:08;26.40;88.60
24426;DHT22;12611;44.446;26.000;2023-07-31T08:22:37;26.40;88.70
24426;DHT22;12611;44.446;26.000;2023-07-31T08:25:06;26.50;88.60
24426;DHT22;12611;44.446;26.000;2023-07-31T08:27:35;26.50;88.40
24426;DHT22;12611;44.446;26.000;2023-07-31T08:30:07;26.50;88.20
24426;DHT22;12611;44.446;26.000;2023-07-31T08:32:36;26.50;88.10
24426;DHT22;12611;44.446;26.000;2023-07-31T08:35:15;26.60;88.30
24426;DHT22;12611;44.446;26.000;2023-07-31T08:37:52;26.60;88.30
24426;DHT22;12611;44.446;26.000;2023-07-31T08:40:23;26.60;88.20
24426;DHT22;12611;44.446;26.000;2023-07-31T08:43:00;26.60;88.00
24426;DHT22;12611;44.446;26.000;2023-07-31T08:45:30;26.60;87.80
24426;DHT22;12611;44.446;26.000;2023-07-31T08:47:59;26.70;87.80
24426;DHT22;12611;44.446;26.000;2023-07-31T08:50:29;26.70;87.70
24426;DHT22;12611;44.446;26.000;2023-07-31T08:52:58;26.70;87.70
24426;DHT22;12611;44.446;26.000;2023-07-31T08:55:27;26.70;87.70
24426;DHT22;12611;44.446;26.000;2023-07-31T08:57:56;26.70;87.50
24426;DHT22;12611;44.446;26.000;2023-07-31T09:00:25;26.80;87.70
24426;DHT22;12611;44.446;26.000;2023-07-31T09:02:59;26.80;87.70
24426;DHT22;12611;44.446;26.000;2023-07-31T09:05:31;26.90;87.50
24426;DHT22;12611;44.446;26.000;2023-07-31T09:08:01;26.90;87.40
24426;DHT22;12611;44.446;26.000;2023-07-31T09:10:30;27.00;87.20
24426;DHT22;12611;44.446;26.000;2023-07-31T09:13:01;27.10;87.10
24426;DHT22;12611;44.446;26.000;2023-07-31T09:15:31;27.10;87.40
24426;DHT22;12611;44.446;26.000;2023-07-31T09:18:05;27.10;86.90
24426;DHT22;12611;44.446;26.000;2023-07-31T09:20:36;27.10;86.60
24426;DHT22;12611;44.446;26.000;2023-07-31T09:23:12;27.10;86.60
24426;DHT22;12611;44.446;26.000;2023-07-31T09:25:44;27.10;86.80
24426;DHT22;12611;44.446;26.000;2023-07-31T09:28:12;27.10;86.70
24426;DHT22;12611;44.446;26.000;2023-07-31T09:30:54;27.20;86.60
24426;DHT22;12611;44.446;26.000;2023-07-31T09:33:56;27.20;86.50
24426;DHT22;12611;44.446;26.000;2023-07-31T09:36:33;27.20;86.40
24426;DHT22;12611;44.446;26.000;2023-07-31T09:39:09;27.10;86.30
24426;DHT22;12611;44.446;26.000;2023-07-31T09:44:16;27.10;86.10
24426;DHT22;12611;44.446;26.000;2023-07-31T09:47:06;27.10;85.90
24426;DHT22;12611;44.446;26.000;2023-07-31T09:49:37;27.10;85.80
24426;DHT22;12611;44.446;26.000;2023-07-31T09:52:14;27.10;85.80
24426;DHT22;12611;44.446;26.000;2023-07-31T09:54:43;27.10;85.70
24426;DHT22;12611;44.446;26.000;2023-07-31T09:57:12;27.20;85.80
24426;DHT22;12611;44.446;26.000;2023-07-31T09:59:50;27.10;85.70
24426;DHT22;12611;44.446;26.000;2023-07-31T10:02:22;27.20;86.00
24426;DHT22;12611;44.446;26.000;2023-07-31T10:04:52;27.20;85.80
24426;DHT22;12611;44.446;26.000;2023-07-31T10:07:25;27.20;85.80
24426;DHT22;12611;44.446;26.000;2023-07-31T10:09:56;27.20;85.60
24426;DHT22;12611;44.446;26.000;2023-07-31T10:12:29;27.20;85.70
24426;DHT22;12611;44.446;26.000;2023-07-31T10:15:03;27.20;85.40
24426;DHT22;12611;44.446;26.000;2023-07-31T10:17:50;27.20;85.20
24426;DHT22;12611;44.446;26.000;2023-07-31T10:20:19;27.20;85.10
24426;DHT22;12611;44.446;26.000;2023-07-31T10:22:51;27.20;85.00
24426;DHT22;12611;44.446;26.000;2023-07-31T10:25:22;27.20;84.80
24426;DHT22;12611;44.446;26.000;2023-07-31T10:27:50;27.30;84.80
24426;DHT22;12611;44.446;26.000;2023-07-31T10:30:23;27.30;84.80
24426;DHT22;12611;44.446;26.000;2023-07-31T10:32:54;27.30;84.70
24426;DHT22;12611;44.446;26.000;2023-07-31T10:35:24;27.40;84.60
24426;DHT22;12611;44.446;26.000;2023-07-31T10:37:54;27.50;84.30
24426;DHT22;12611;44.446;26.000;2023-07-31T10:40:24;27.50;84.50
24426;DHT22;12611;44.446;26.000;2023-07-31T10:42:55;27.50;84.20
24426;DHT22;12611;44.446;26.000;2023-07-31T10:45:31;27.60;84.10
24426;DHT22;12611;44.446;26.000;2023-07-31T10:48:00;27.60;83.90
24426;DHT22;12611;44.446;26.000;2023-07-31T10:50:31;27.70;83.80
24426;DHT22;12611;44.446;26.000;2023-07-31T10:53:02;27.80;83.50
24426;DHT22;12611;44.446;26.000;2023-07-31T10:55:39;27.90;83.50
24426;DHT22;12611;44.446;26.000;2023-07-31T10:58:10;28.00;83.20
24426;DHT22;12611;44.446;26.000;2023-07-31T11:00:44;28.20;83.00
24426;DHT22;12611;44.446;26.000;2023-07-31T11:03:15;28.30;82.90
24426;DHT22;12611;44.446;26.000;2023-07-31T11:05:48;28.30;82.20
24426;DHT22;12611;44.446;26.000;2023-07-31T11:08:18;28.30;81.90
24426;DHT22;12611;44.446;26.000;2023-07-31T11:10:49;28.30;81.50
24426;DHT22;12611;44.446;26.000;2023-07-31T11:13:18;28.30;81.10
24426;DHT22;12611;44.446;26.000;2023-07-31T11:15:47;28.30;82.20
24426;DHT22;12611;44.446;26.000;2023-07-31T11:18:15;28.50;81.50
24426;DHT22;12611;44.446;26.000;2023-07-31T11:20:45;28.50;80.80
24426;DHT22;12611;44.446;26.000;2023-07-31T11:23:17;28.60;80.50
24426;DHT22;12611;44.446;26.000;2023-07-31T11:25:46;28.70;80.00
24426;DHT22;12611;44.446;26.000;2023-07-31T11:28:16;28.70;80.00
24426;DHT22;12611;44.446;26.000;2023-07-31T11:30:45;28.80;80.20
24426;DHT22;12611;44.446;26.000;2023-07-31T11:33:14;28.80;79.70
24426;DHT22;12611;44.446;26.000;2023-07-31T11:35:44;28.80;79.60
24426;DHT22;12611;44.446;26.000;2023-07-31T11:38:23;28.80;78.70
24426;DHT22;12611;44.446;26.000;2023-07-31T11:40:59;28.80;78.70
24426;DHT22;12611;44.446;26.000;2023-07-31T11:43:30;28.80;79.00
24426;DHT22;12611;44.446;26.000;2023-07-31T11:46:01;28.80;78.70
24426;DHT22;12611;44.446;26.000;2023-07-31T11:48:32;28.80;78.10
24426;DHT22;12611;44.446;26.000;2023-07-31T11:51:04;28.80;78.20
24426;DHT22;12611;44.446;26.000;2023-07-31T11:53:38;28.70;78.00
24426;DHT22;12611;44.446;26.000;2023-07-31T11:56:09;28.80;78.10
24426;DHT22;12611;44.446;26.000;2023-07-31T11:58:39;28.90;78.20
24426;DHT22;12611;44.446;26.000;2023-07-31T12:01:10;28.90;78.10
24426;DHT22;12611;44.446;26.000;2023-07-31T12:03:41;29.00;77.70
24426;DHT22;12611;44.446;26.000;2023-07-31T12:06:10;29.10;77.90
24426;DHT22;12611;44.446;26.000;2023-07-31T12:08:40;29.10;78.10
24426;DHT22;12611;44.446;26.000;2023-07-31T12:11:09;29.10;78.00
24426;DHT22;12611;44.446;26.000;2023-07-31T12:13:37;29.00;77.70
24426;DHT22;12611;44.446;26.000;2023-07-31T12:16:06;29.00;77.70
24426;DHT22;12611;44.446;26.000;2023-07-31T12:18:36;29.00;77.50
24426;DHT22;12611;44.446;26.000;2023-07-31T12:21:06;28.90;77.30
24426;DHT22;12611;44.446;26.000;2023-07-31T12:23:36;28.90;77.40
24426;DHT22;12611;44.446;26.000;2023-07-31T12:26:08;28.90;77.50
24426;DHT22;12611;44.446;26.000;2023-07-31T12:28:37;28.80;77.50
24426;DHT22;12611;44.446;26.000;2023-07-31T12:31:08;28.80;77.50
24426;DHT22;12611;44.446;26.000;2023-07-31T12:33:39;28.80;77.20
24426;DHT22;12611;44.446;26.000;2023-07-31T12:36:09;28.70;77.20
24426;DHT22;12611;44.446;26.000;2023-07-31T12:38:37;28.70;77.10
24426;DHT22;12611;44.446;26.000;2023-07-31T12:41:08;28.70;77.10
24426;DHT22;12611;44.446;26.000;2023-07-31T12:43:37;28.60;77.20
24426;DHT22;12611;44.446;26.000;2023-07-31T12:46:06;28.60;77.00
24426;DHT22;12611;44.446;26.000;2023-07-31T12:48:36;28.60;76.90
24426;DHT22;12611;44.446;26.000;2023-07-31T12:51:05;28.60;76.80
24426;DHT22;12611;44.446;26.000;2023-07-31T12:53:34;28.60;76.90
24426;DHT22;12611;44.446;26.000;2023-07-31T12:56:03;28.70;77.00
24426;DHT22;12611;44.446;26.000;2023-07-31T12:58:33;28.70;76.70
24426;DHT22;12611;44.446;26.000;2023-07-31T13:01:02;28.80;76.10
24426;DHT22;12611;44.446;26.000;2023-07-31T13:03:30;28.90;76.20
24426;DHT22;12611;44.446;26.000;2023-07-31T13:05:59;28.90;76.10
24426;DHT22;12611;44.446;26.000;2023-07-31T13:08:27;29.00;76.20
24426;DHT22;12611;44.446;26.000;2023-07-31T13:10:58;29.10;76.10
24426;DHT22;12611;44.446;26.000;2023-07-31T13:13:27;29.10;75.40
24426;DHT22;12611;44.446;26.000;2023-07-31T13:16:00;29.10;75.40
24426;DHT22;12611;44.446;26.000;2023-07-31T13:18:28;29.00;74.60
24426;DHT22;12611;44.446;26.000;2023-07-31T13:20:56;28.90;73.60
24426;DHT22;12611;44.446;26.000;2023-07-31T13:23:25;28.90;73.60
24426;DHT22;12611;44.446;26.000;2023-07-31T13:25:53;28.80;73.80
24426;DHT22;12611;44.446;26.000;2023-07-31T13:28:22;28.80;74.10
24426;DHT22;12611;44.446;26.000;2023-07-31T13:30:50;28.70;74.30
24426;DHT22;12611;44.446;26.000;2023-07-31T13:33:20;28.60;74.10
24426;DHT22;12611;44.446;26.000;2023-07-31T13:36:03;28.60;73.90
24426;DHT22;12611;44.446;26.000;2023-07-31T13:38:32;28.50;74.20
24426;DHT22;12611;44.446;26.000;2023-07-31T13:41:00;28.50;74.40
24426;DHT22;12611;44.446;26.000;2023-07-31T13:43:29;28.50;74.50
24426;DHT22;12611;44.446;26.000;2023-07-31T13:45:57;28.50;74.70
24426;DHT22;12611;44.446;26.000;2023-07-31T13:48:33;28.40;74.70
24426;DHT22;12611;44.446;26.000;2023-07-31T13:51:01;28.40;74.70
24426;DHT22;12611;44.446;26.000;2023-07-31T13:53:31;28.40;75.00
24426;DHT22;12611;44.446;26.000;2023-07-31T13:55:59;28.40;75.10
24426;DHT22;12611;44.446;26.000;2023-07-31T13:58:28;28.30;75.10
24426;DHT22;12611;44.446;26.000;2023-07-31T14:00:56;28.30;75.50
24426;DHT22;12611;44.446;26.000;2023-07-31T14:03:24;28.30;76.00
24426;DHT22;12611;44.446;26.000;2023-07-31T14:05:55;28.30;76.30
24426;DHT22;12611;44.446;26.000;2023-07-31T14:08:26;28.20;76.30
24426;DHT22;12611;44.446;26.000;2023-07-31T14:10:56;28.20;76.60
24426;DHT22;12611;44.446;26.000;2023-07-31T14:13:25;28.20;76.60
24426;DHT22;12611;44.446;26.000;2023-07-31T14:15:53;28.10;76.70
24426;DHT22;12611;44.446;26.000;2023-07-31T14:18:51;28.10;76.70
24426;DHT22;12611;44.446;26.000;2023-07-31T14:25:35;28.00;77.60
24426;DHT22;12611;44.446;26.000;2023-07-31T14:32:21;27.90;78.30
24426;DHT22;12611;44.446;26.000;2023-07-31T14:46:11;27.80;78.70
24426;DHT22;12611;44.446;26.000;2023-07-31T14:49:12;27.50;82.70
24426;DHT22;12611;44.446;26.000;2023-07-31T14:54:43;27.40;83.40
24426;DHT22;12611;44.446;26.000;2023-07-31T14:57:46;27.30;83.60
24426;DHT22;12611;44.446;26.000;2023-07-31T15:00:43;27.20;83.60
24426;DHT22;12611;44.446;26.000;2023-07-31T15:03:31;27.20;83.50
24426;DHT22;12611;44.446;26.000;2023-07-31T15:06:09;27.10;83.40
24426;DHT22;12611;44.446;26.000;2023-07-31T15:08:53;27.10;83.10
24426;DHT22;12611;44.446;26.000;2023-07-31T15:11:22;27.00;82.90
24426;DHT22;12611;44.446;26.000;2023-07-31T15:14:12;27.00;83.00
24426;DHT22;12611;44.446;26.000;2023-07-31T15:16:49;27.00;83.30
24426;DHT22;12611;44.446;26.000;2023-07-31T15:19:22;26.90;83.80
24426;DHT22;12611;44.446;26.000;2023-07-31T15:21:51;26.90;84.00
24426;DHT22;12611;44.446;26.000;2023-07-31T15:24:20;26.80;84.90
24426;DHT22;12611;44.446;26.000;2023-07-31T15:26:48;26.80;85.00
24426;DHT22;12611;44.446;26.000;2023-07-31T15:29:19;26.80;85.60
24426;DHT22;12611;44.446;26.000;2023-07-31T15:31:48;26.70;85.80
24426;DHT22;12611;44.446;26.000;2023-07-31T15:34:17;26.70;86.80
24426;DHT22;12611;44.446;26.000;2023-07-31T15:36:48;26.70;87.20
24426;DHT22;12611;44.446;26.000;2023-07-31T15:39:16;26.70;87.20
24426;DHT22;12611;44.446;26.000;2023-07-31T15:41:45;26.70;87.70
24426;DHT22;12611;44.446;26.000;2023-07-31T15:44:14;26.70;87.80
24426;DHT22;12611;44.446;26.000;2023-07-31T15:46:42;26.70;88.30
24426;DHT22;12611;44.446;26.000;2023-07-31T15:49:13;26.60;88.70
24426;DHT22;12611;44.446;26.000;2023-07-31T15:51:42;26.60;89.00
24426;DHT22;12611;44.446;26.000;2023-07-31T15:54:12;26.60;90.00
24426;DHT22;12611;44.446;26.000;2023-07-31T15:56:40;26.60;89.90
24426;DHT22;12611;44.446;26.000;2023-07-31T15:59:09;26.50;90.10
24426;DHT22;12611;44.446;26.000;2023-07-31T16:01:37;26.50;90.00